createdAt,value
2022-08-08T00:05:43.478Z,36.56
2022-08-08T00:08:27.654Z,36.35
2022-08-08T00:11:13.153Z,36.93
2022-08-08T00:14:48.494Z,36.75
2022-08-08T00:17:23.186Z,36.64
2022-08-08T00:19:59.777Z,36.72
2022-08-08T00:22:34.841Z,36.01
2022-08-08T00:25:25.131Z,37.04
2022-08-08T00:28:35.547Z,37.10
2022-08-08T00:32:15.011Z,37.33
2022-08-08T00:34:46.025Z,37.37
2022-08-08T00:37:47.820Z,36.79
2022-08-08T00:41:12.532Z,37.53
2022-08-08T00:44:02.562Z,38.01
2022-08-08T00:47:19.335Z,37.74
2022-08-08T00:50:35.488Z,38.19
2022-08-08T00:53:20.588Z,37.65
2022-08-08T00:56:41.782Z,38.39
2022-08-08T00:59:57.797Z,38.34
2022-08-08T01:03:58.096Z,38.33
2022-08-08T01:06:27.591Z,38.58
2022-08-08T01:09:36.336Z,38.93
2022-08-08T01:12:55.961Z,39.52
2022-08-08T01:16:00.632Z,39.25
2022-08-08T01:19:41.795Z,39.53
2022-08-08T01:22:35.244Z,39.33
2022-08-08T01:25:40.177Z,39.31
2022-08-08T01:28:28.113Z,39.19
2022-08-08T01:32:14.971Z,39.56
2022-08-08T01:34:52.112Z,39.58
2022-08-08T01:37:59.132Z,39.55
2022-08-08T01:41:09.920Z,39.73
2022-08-08T01:43:50.872Z,38.58
2022-08-08T01:46:40.430Z,39.18
2022-08-08T01:49:23.489Z,39.22
2022-08-08T01:52:41.300Z,39.59
2022-08-08T01:56:29.334Z,39.18
2022-08-08T01:58:38.663Z,39.65
2022-08-08T02:01:22.926Z,40.13
2022-08-08T02:04:07.623Z,39.92
2022-08-08T02:06:55.871Z,40.41
2022-08-08T02:10:02.305Z,40.20
2022-08-08T02:12:49.394Z,39.74
2022-08-08T02:15:30.410Z,39.59
2022-08-08T02:18:12.685Z,40.25
2022-08-08T02:21:13.196Z,39.90
2022-08-08T02:23:46.633Z,39.67
2022-08-08T02:26:25.458Z,40.03
2022-08-08T02:29:18.667Z,40.51
2022-08-08T02:32:15.737Z,39.72
2022-08-08T02:35:17.528Z,39.73
2022-08-08T02:38:28.992Z,40.50
2022-08-08T02:42:03.870Z,40.56
2022-08-08T02:45:18.173Z,40.77
2022-08-08T02:48:27.423Z,40.64
2022-08-08T02:51:55.120Z,40.89
2022-08-08T02:55:02.287Z,41.23
2022-08-08T02:58:26.407Z,40.89
2022-08-08T03:01:15.091Z,40.99
2022-08-08T03:05:04.547Z,41.30
2022-08-08T03:07:59.337Z,41.80
2022-08-08T03:11:05.015Z,41.53
2022-08-08T03:16:01.861Z,41.51
2022-08-08T03:16:50.248Z,40.88
2022-08-08T03:19:51.129Z,41.32
2022-08-08T03:22:38.432Z,40.06
2022-08-08T03:25:18.063Z,40.51
2022-08-08T03:27:56.450Z,40.67
2022-08-08T03:30:27.591Z,40.36
2022-08-08T03:33:56.115Z,40.52
2022-08-08T03:36:03.935Z,40.36
2022-08-08T03:38:57.367Z,40.62
2022-08-08T03:42:26.830Z,40.83
2022-08-08T03:44:20.464Z,40.77
2022-08-08T03:46:54.171Z,40.76
2022-08-08T03:49:57.995Z,40.72
2022-08-08T03:52:16.835Z,40.97
2022-08-08T03:55:01.891Z,41.39
2022-08-08T03:58:29.946Z,41.56
2022-08-08T04:00:30.680Z,41.09
2022-08-08T04:03:11.804Z,40.66
2022-08-08T04:05:47.963Z,40.31
2022-08-08T04:08:32.814Z,40.93
2022-08-08T04:11:11.387Z,40.90
2022-08-08T04:14:04.115Z,40.46
2022-08-08T04:16:38.383Z,40.84
2022-08-08T04:19:25.153Z,40.88
2022-08-08T04:21:59.469Z,40.76
2022-08-08T04:24:33.049Z,41.11
2022-08-08T04:27:10.315Z,40.86
2022-08-08T04:30:00.754Z,41.47
2022-08-08T04:32:34.061Z,41.05
2022-08-08T04:35:06.090Z,41.07
2022-08-08T04:37:42.545Z,41.18
2022-08-08T04:40:17.905Z,41.12
2022-08-08T04:42:56.630Z,41.48
2022-08-08T04:45:30.836Z,41.62
2022-08-08T04:48:03.628Z,41.28
2022-08-08T04:50:38.546Z,41.83
2022-08-08T04:53:52.581Z,42.09
2022-08-08T04:55:59.794Z,41.97
2022-08-08T04:58:33.639Z,41.96
2022-08-08T05:01:05.926Z,42.19
2022-08-08T05:04:08.290Z,42.63
2022-08-08T05:06:29.180Z,42.20
2022-08-08T05:09:02.988Z,42.08
2022-08-08T05:11:39.648Z,42.08
2022-08-08T05:14:12.754Z,42.07
2022-08-08T05:16:51.256Z,42.34
2022-08-08T05:20:09.313Z,42.28
2022-08-08T05:22:18.124Z,42.14
2022-08-08T05:24:49.640Z,41.66
2022-08-08T05:27:21.833Z,41.57
2022-08-08T05:29:52.456Z,41.24
2022-08-08T05:32:27.400Z,41.85
2022-08-08T05:35:04.367Z,42.85
2022-08-08T05:37:53.278Z,41.94
2022-08-08T05:40:37.355Z,42.23
2022-08-08T05:43:40.204Z,42.52
2022-08-08T05:46:08.618Z,43.10
2022-08-08T05:48:42.577Z,42.53
2022-08-08T05:51:15.818Z,42.38
2022-08-08T05:54:24.379Z,41.80
2022-08-08T05:56:47.540Z,43.17
2022-08-08T05:59:58.594Z,42.77
2022-08-08T06:02:40.939Z,42.47
2022-08-08T06:05:32.859Z,43.01
2022-08-08T06:08:09.327Z,41.68
2022-08-08T06:10:50.023Z,41.52
2022-08-08T06:13:23.293Z,41.03
2022-08-08T06:15:55.164Z,41.58
2022-08-08T06:18:43.683Z,41.04
2022-08-08T06:21:28.249Z,40.45
2022-08-08T06:24:05.133Z,41.21
2022-08-08T06:26:52.441Z,40.48
2022-08-08T06:29:59.217Z,40.69
2022-08-08T06:32:18.712Z,39.39
2022-08-08T06:35:12.287Z,38.71
2022-08-08T06:37:51.020Z,38.08
2022-08-08T06:40:30.230Z,36.85
2022-08-08T06:43:05.452Z,36.00
2022-08-08T06:45:41.396Z,34.56
2022-08-08T06:48:10.731Z,33.96
2022-08-08T06:50:42.701Z,33.19
2022-08-08T06:53:20.126Z,32.52
2022-08-08T06:56:01.998Z,32.30
2022-08-08T06:58:33.348Z,31.83
2022-08-08T07:01:52.248Z,32.04
2022-08-08T07:04:39.585Z,32.05
2022-08-08T07:06:50.636Z,32.51
2022-08-08T07:09:41.916Z,32.60
2022-08-08T07:12:23.244Z,32.80
2022-08-08T07:15:09.543Z,32.78
2022-08-08T07:18:35.571Z,32.97
2022-08-08T07:20:55.092Z,33.10
2022-08-08T07:23:28.936Z,33.27
2022-08-08T07:26:21.576Z,33.14
2022-08-08T07:28:58.857Z,32.98
2022-08-08T07:31:35.388Z,33.04
2022-08-08T07:34:09.222Z,32.70
2022-08-08T07:36:48.144Z,31.95
2022-08-08T07:39:29.606Z,31.66
2022-08-08T07:42:18.927Z,31.05
2022-08-08T07:44:51.286Z,30.27
2022-08-08T07:47:29.133Z,28.95
2022-08-08T07:50:10.038Z,28.22
2022-08-08T07:52:43.901Z,26.78
2022-08-08T07:55:23.021Z,26.07
2022-08-08T07:58:13.459Z,24.60
2022-08-08T08:00:46.640Z,23.30
2022-08-08T08:03:28.311Z,22.73
2022-08-08T08:05:59.916Z,23.98
2022-08-08T08:08:39.287Z,21.57
2022-08-08T08:11:24.022Z,21.95
2022-08-08T08:14:10.764Z,19.87
2022-08-08T08:16:50.408Z,22.24
2022-08-08T08:19:22.788Z,21.38
2022-08-08T08:21:57.120Z,20.17
2022-08-08T08:24:35.616Z,20.72
2022-08-08T08:27:09.310Z,20.73
2022-08-08T08:29:40.160Z,20.83
2022-08-08T08:32:11.825Z,20.30
2022-08-08T08:34:48.469Z,20.29
2022-08-08T08:37:20.517Z,20.05
2022-08-08T08:40:00.919Z,19.33
2022-08-08T08:42:36.654Z,19.17
2022-08-08T08:45:23.153Z,17.43
2022-08-08T08:47:58.648Z,18.80
2022-08-08T08:50:34.878Z,18.83
2022-08-08T08:53:54.382Z,18.62
2022-08-08T08:56:09.245Z,18.40
2022-08-08T08:58:46.776Z,18.44
2022-08-08T09:01:35.382Z,15.62
2022-08-08T09:04:30.052Z,15.24
2022-08-08T09:07:00.544Z,17.18
2022-08-08T09:09:39.989Z,16.67
2022-08-08T09:12:24.141Z,16.38
2022-08-08T09:14:55.669Z,16.03
2022-08-08T09:17:40.977Z,16.79
2022-08-08T09:21:59.700Z,16.10
2022-08-08T09:23:02.922Z,16.92
2022-08-08T09:25:35.941Z,15.08
2022-08-08T09:28:38.295Z,16.24
2022-08-08T09:31:42.330Z,13.42
2022-08-08T09:34:34.536Z,14.80
2022-08-08T09:37:57.865Z,14.94
2022-08-08T09:40:10.867Z,14.98
2022-08-08T09:42:43.688Z,15.73
2022-08-08T09:45:54.109Z,15.81
2022-08-08T09:48:16.303Z,16.09
2022-08-08T09:50:55.703Z,15.50
2022-08-08T09:54:01.249Z,15.09
2022-08-08T09:56:25.267Z,15.93
2022-08-08T09:58:57.849Z,14.66
2022-08-08T10:01:59.470Z,14.84
2022-08-08T10:04:35.512Z,16.11
2022-08-08T10:07:10.544Z,15.52
2022-08-08T10:09:58.915Z,17.02
2022-08-08T10:12:37.719Z,15.88
2022-08-08T10:15:17.625Z,15.65
2022-08-08T10:18:06.161Z,17.30
2022-08-08T10:20:51.199Z,14.74
2022-08-08T10:23:44.095Z,15.86
2022-08-08T10:26:29.865Z,16.25
2022-08-08T10:29:06.719Z,15.54
2022-08-08T10:31:55.240Z,17.71
2022-08-08T10:34:24.873Z,17.18
2022-08-08T10:36:59.882Z,18.11
2022-08-08T10:39:54.372Z,16.42
2022-08-08T10:42:27.195Z,17.84
2022-08-08T10:45:02.345Z,16.40
2022-08-08T10:47:43.157Z,16.54
2022-08-08T10:50:15.639Z,16.84
2022-08-08T10:52:47.883Z,16.72
2022-08-08T10:55:41.406Z,16.44
2022-08-08T10:58:09.755Z,17.54
2022-08-08T11:00:53.149Z,15.87
2022-08-08T11:04:01.107Z,16.05
2022-08-08T11:06:34.332Z,17.25
2022-08-08T11:09:15.383Z,16.95
2022-08-08T11:12:05.379Z,15.67
2022-08-08T11:14:57.091Z,14.16
2022-08-08T11:18:00.120Z,17.17
2022-08-08T11:20:18.078Z,16.63
2022-08-08T11:22:52.147Z,16.29
2022-08-08T11:25:52.349Z,17.98
2022-08-08T11:28:14.858Z,16.72
2022-08-08T11:30:50.494Z,17.48
2022-08-08T11:33:51.917Z,15.70
2022-08-08T11:36:15.255Z,16.90
2022-08-08T11:38:55.511Z,16.81
2022-08-08T11:41:24.738Z,16.70
2022-08-08T11:43:57.851Z,16.35
2022-08-08T11:46:30.514Z,16.86
2022-08-08T11:49:05.034Z,16.38
2022-08-08T11:51:40.357Z,16.70
2022-08-08T11:54:32.228Z,16.71
2022-08-08T11:57:17.379Z,15.56
2022-08-08T12:00:02.173Z,15.46
2022-08-08T12:02:51.129Z,15.28
2022-08-08T12:05:22.410Z,16.49
2022-08-08T12:07:53.153Z,16.40
2022-08-08T12:10:27.191Z,16.47
2022-08-08T12:13:03.397Z,16.18
2022-08-08T12:15:42.762Z,16.87
2022-08-08T12:18:21.695Z,17.26
2022-08-08T12:20:58.869Z,17.14
2022-08-08T12:23:30.480Z,18.19
2022-08-08T12:26:17.267Z,17.23
2022-08-08T12:28:57.173Z,17.63
2022-08-08T12:31:39.142Z,16.87
2022-08-08T12:34:36.159Z,17.36
2022-08-08T12:37:08.502Z,17.46
2022-08-08T12:39:56.314Z,17.38
2022-08-08T12:42:26.575Z,17.54
2022-08-08T12:45:19.895Z,17.24
2022-08-08T12:48:36.655Z,17.46
2022-08-08T12:50:59.154Z,18.52
2022-08-08T12:53:36.440Z,18.71
2022-08-08T12:56:19.869Z,18.70
2022-08-08T12:58:54.489Z,18.63
2022-08-08T13:01:37.485Z,18.65
2022-08-08T13:04:25.131Z,18.61
2022-08-08T13:07:04.094Z,18.71
2022-08-08T13:09:43.044Z,19.24
2022-08-08T13:12:30.550Z,19.27
2022-08-08T13:15:02.236Z,19.29
2022-08-08T13:18:10.059Z,19.55
2022-08-08T13:20:24.058Z,19.63
2022-08-08T13:23:26.907Z,19.51
2022-08-08T13:25:48.906Z,19.05
2022-08-08T13:28:31.997Z,19.16
2022-08-08T13:31:05.988Z,20.02
2022-08-08T13:33:42.294Z,20.15
2022-08-08T13:36:13.676Z,20.02
2022-08-08T13:38:42.322Z,19.93
2022-08-08T13:41:16.688Z,20.19
2022-08-08T13:43:47.010Z,20.34
2022-08-08T13:46:26.318Z,20.35
2022-08-08T13:49:12.199Z,20.30
2022-08-08T13:52:00.842Z,20.45
2022-08-08T13:54:31.762Z,20.95
2022-08-08T13:57:12.447Z,20.40
2022-08-08T13:59:43.635Z,20.40
2022-08-08T14:02:20.888Z,20.51
2022-08-08T14:05:04.888Z,20.71
2022-08-08T14:07:51.992Z,20.91
2022-08-08T14:10:33.316Z,20.96
2022-08-08T14:13:20.918Z,21.09
2022-08-08T14:16:02.575Z,20.86
2022-08-08T14:18:36.687Z,21.15
2022-08-08T14:21:20.734Z,21.21
2022-08-08T14:24:07.480Z,21.27
2022-08-08T14:26:42.471Z,21.02
2022-08-08T14:29:28.945Z,20.95
2022-08-08T14:32:09.187Z,21.02
2022-08-08T14:34:39.242Z,21.06
2022-08-08T14:37:12.890Z,21.19
2022-08-08T14:39:50.521Z,21.06
2022-08-08T14:42:32.748Z,21.09
2022-08-08T14:45:04.859Z,21.12
2022-08-08T14:47:51.280Z,21.35
2022-08-08T14:50:38.470Z,21.38
2022-08-08T14:53:13.650Z,21.73
2022-08-08T14:55:45.031Z,21.55
2022-08-08T14:58:16.743Z,21.69
2022-08-08T15:00:50.696Z,21.54
2022-08-08T15:03:19.198Z,21.70
2022-08-08T15:05:53.588Z,21.85
2022-08-08T15:08:34.806Z,21.85
2022-08-08T15:11:11.795Z,21.52
2022-08-08T15:14:01.507Z,21.84
2022-08-08T15:16:34.475Z,22.03
2022-08-08T15:19:03.248Z,21.96
2022-08-08T15:21:34.334Z,22.00
2022-08-08T15:24:13.477Z,22.20
2022-08-08T15:26:52.501Z,21.84
2022-08-08T15:29:22.343Z,21.91
2022-08-08T15:32:19.119Z,21.84
2022-08-08T15:34:44.792Z,22.11
2022-08-08T15:37:13.316Z,22.21
2022-08-08T15:39:41.103Z,22.11
2022-08-08T15:42:17.914Z,22.24
2022-08-08T15:45:02.597Z,22.11
2022-08-08T15:47:32.184Z,21.99
2022-08-08T15:50:00.852Z,21.98
2022-08-08T15:52:29.737Z,22.24
2022-08-08T15:55:02.102Z,22.10
2022-08-08T15:57:35.257Z,22.26
2022-08-08T16:00:26.997Z,22.15
2022-08-08T16:02:58.001Z,22.08
2022-08-08T16:05:35.350Z,22.29
2022-08-08T16:08:13.679Z,22.59
2022-08-08T16:13:03.643Z,22.29
2022-08-08T16:13:43.876Z,22.47
2022-08-08T16:16:17.600Z,22.66
2022-08-08T16:18:57.300Z,22.73
2022-08-08T16:21:28.227Z,22.55
2022-08-08T16:23:58.456Z,22.44
2022-08-08T16:26:33.924Z,22.44
2022-08-08T16:29:08.247Z,22.58
2022-08-08T16:31:41.019Z,22.62
2022-08-08T16:34:10.045Z,22.63
2022-08-08T16:36:40.760Z,22.78
2022-08-08T16:39:27.723Z,23.04
2022-08-08T16:42:01.362Z,22.84
2022-08-08T16:44:33.769Z,23.05
2022-08-08T16:47:16.971Z,22.96
2022-08-08T16:49:47.730Z,23.11
2022-08-08T16:55:07.218Z,23.32
2022-08-08T16:55:42.674Z,23.39
2022-08-08T16:58:13.905Z,23.26
2022-08-08T17:00:49.185Z,23.20
2022-08-08T17:03:24.963Z,23.11
2022-08-08T17:06:03.105Z,23.24
2022-08-08T17:08:31.082Z,23.17
2022-08-08T17:11:11.193Z,23.44
2022-08-08T17:13:41.154Z,23.34
2022-08-08T17:16:22.013Z,23.54
2022-08-08T17:18:52.056Z,23.56
2022-08-08T17:21:21.472Z,23.59
2022-08-08T17:24:00.749Z,23.57
2022-08-08T17:26:31.794Z,23.52
2022-08-08T17:29:03.954Z,23.83
2022-08-08T17:31:43.587Z,23.81
2022-08-08T17:34:53.489Z,23.89
2022-08-08T17:37:06.491Z,23.72
2022-08-08T17:40:04.265Z,23.64
2022-08-08T17:42:26.283Z,23.79
2022-08-08T17:44:54.767Z,23.88
2022-08-08T17:47:27.627Z,24.13
2022-08-08T17:50:00.755Z,24.01
2022-08-08T17:52:30.862Z,24.17
2022-08-08T17:54:59.010Z,24.23
2022-08-08T17:57:28.872Z,24.12
2022-08-08T18:00:03.880Z,24.40
2022-08-08T18:02:33.529Z,24.51
2022-08-08T18:05:04.732Z,24.44
2022-08-08T18:08:02.765Z,24.72
2022-08-08T18:10:31.394Z,24.49
2022-08-08T18:13:19.186Z,24.91
2022-08-08T18:15:59.900Z,24.63
2022-08-08T18:18:45.551Z,24.70
2022-08-08T18:22:00.430Z,24.96
2022-08-08T18:24:28.682Z,24.80
2022-08-08T18:27:06.264Z,24.96
2022-08-08T18:29:53.766Z,25.24
2022-08-08T18:32:26.850Z,25.02
2022-08-08T18:35:15.503Z,25.69
2022-08-08T18:40:57.323Z,26.23
2022-08-08T18:43:42.644Z,26.32
2022-08-08T18:46:54.320Z,27.01
2022-08-08T18:49:41.046Z,27.84
2022-08-08T18:52:38.350Z,27.10
2022-08-08T18:58:41.904Z,28.82
2022-08-08T19:02:25.771Z,28.18
2022-08-08T19:07:33.411Z,27.73
2022-08-08T19:10:23.214Z,28.50
2022-08-08T19:13:00.095Z,28.75
2022-08-08T19:15:56.162Z,28.25
2022-08-08T19:18:51.519Z,29.18
2022-08-08T19:21:33.460Z,28.93
2022-08-08T19:24:48.279Z,28.53
2022-08-08T19:27:56.072Z,29.92
2022-08-08T19:30:32.923Z,30.22
2022-08-08T19:33:20.654Z,30.47
2022-08-08T19:37:04.142Z,29.00
2022-08-08T19:39:51.016Z,30.04
2022-08-08T19:43:11.706Z,30.11
2022-08-08T19:46:14.518Z,29.46
2022-08-08T19:50:07.402Z,30.59
2022-08-08T19:53:53.673Z,30.93
2022-08-08T19:57:09.561Z,29.35
2022-08-08T20:00:39.688Z,31.35
2022-08-08T20:06:12.827Z,31.76
2022-08-08T20:16:41.180Z,32.36
2022-08-08T20:19:42.427Z,30.27
2022-08-08T20:22:13.110Z,30.71
2022-08-08T20:24:50.484Z,31.07
2022-08-08T20:27:21.223Z,30.21
2022-08-08T20:30:00.462Z,30.91
2022-08-08T20:33:19.721Z,32.65
2022-08-08T20:36:58.086Z,32.58
2022-08-08T20:40:51.217Z,32.98
2022-08-08T20:44:17.471Z,32.97
2022-08-08T21:16:06.511Z,33.39
2022-08-08T21:18:19.697Z,32.07
2022-08-08T21:21:39.652Z,33.18
2022-08-08T21:24:08.705Z,32.49
2022-08-08T21:26:40.189Z,32.36
2022-08-08T21:29:08.442Z,32.47
2022-08-08T21:31:57.601Z,33.21
2022-08-08T21:34:29.995Z,32.40
2022-08-08T21:36:58.570Z,33.00
2022-08-08T21:39:41.341Z,32.67
2022-08-08T21:42:14.507Z,33.20
2022-08-08T21:44:58.019Z,32.71
2022-08-08T21:48:06.010Z,33.20
2022-08-08T21:50:16.331Z,32.69
2022-08-08T21:54:33.261Z,32.88
2022-08-08T21:56:19.775Z,33.89
2022-08-08T21:58:21.592Z,33.06
2022-08-08T22:01:00.347Z,33.19
2022-08-08T22:03:34.187Z,34.03
2022-08-08T22:06:02.277Z,33.43
2022-08-08T22:08:37.419Z,33.19
2022-08-08T22:11:59.143Z,33.62
2022-08-08T22:13:58.485Z,33.41
2022-08-08T22:16:27.122Z,33.98
2022-08-08T22:18:56.612Z,33.94
2022-08-08T22:21:24.945Z,33.62
2022-08-08T22:24:02.659Z,33.46
2022-08-08T22:26:31.887Z,34.27
2022-08-08T22:29:13.521Z,33.68
2022-08-08T22:31:58.398Z,33.94
2022-08-08T22:34:33.083Z,34.43
2022-08-08T22:37:27.557Z,34.04
2022-08-08T22:40:01.327Z,33.87
2022-08-08T22:42:32.073Z,33.73
2022-08-08T22:45:03.979Z,34.50
2022-08-08T22:47:37.765Z,34.25
2022-08-08T22:50:25.949Z,35.08
2022-08-08T22:54:28.438Z,34.34
2022-08-08T22:55:59.230Z,34.32
2022-08-08T22:58:33.359Z,34.89
2022-08-08T23:01:16.573Z,34.23
2022-08-08T23:03:53.574Z,34.61
2022-08-08T23:06:24.430Z,34.80
2022-08-08T23:08:55.652Z,34.55
2022-08-08T23:11:58.110Z,34.89
2022-08-08T23:14:16.743Z,34.46
2022-08-08T23:16:48.162Z,34.29
2022-08-08T23:19:26.005Z,34.60
2022-08-08T23:21:55.324Z,34.80
2022-08-08T23:24:23.623Z,34.58
2022-08-08T23:26:55.313Z,34.83
2022-08-08T23:29:24.951Z,34.93
2022-08-08T23:31:53.152Z,35.00
2022-08-08T23:34:22.429Z,34.72
2022-08-08T23:36:56.658Z,34.97
2022-08-08T23:39:32.018Z,35.82
2022-08-08T23:42:09.591Z,34.49
2022-08-08T23:44:38.629Z,34.80
2022-08-08T23:48:59.926Z,35.41
2022-08-08T23:50:02.738Z,35.38
2022-08-08T23:52:32.061Z,35.13
2022-08-08T23:55:14.711Z,35.70
2022-08-08T23:57:53.349Z,35.18
